Latest Weather Observations for Lake Grace

IDW60801

Issued at 12:53 pm WST Monday 19 November 2018 (issued every 10 minutes, with the page automatically refreshed every 10 minutes)

About weather observations | Map of weather stations | Latest weather observations for WA | Other Formats
Station Details ID: 010911 Name: LAKE GRACE Lat: -33.10 Lon: 118.46 Height: 286.0 m
Data from the previous 72 hours. | See also: Recent months at Lake Grace
Date/Time
WST
Temp
°C
App
Temp
°C
Dew
Point
°C
Rel
Hum
%
Delta-T
°C
Wind Press
QNH
hPa
Press
MSL
hPa
Rain since
9am
mm
Dir  Spd
km/h
Gust
km/h
Spd
kts
Gust
kts
19/12:30pm 19.9 14.9 1.4 29 8.5 SW 17 30 9 16 1017.7 1016.8 0.0
19/12:00pm 19.1 14.4 0.7 29 8.3 S 15 28 8 15 1017.7 1016.8 0.0
19/11:30am 18.7 13.3 1.2 31 8.0 SW 19 30 10 16 1018.1 1017.2 0.0
19/11:00am 17.6 13.7 1.2 33 7.4 SW 11 19 6 10 1018.4 1017.5 0.0
19/10:30am 16.6 11.0 1.1 35 6.9 SW 20 35 11 19 1018.6 1017.7 0.0
19/10:00am 15.5 10.9 1.3 38 6.3 SW 15 26 8 14 1018.8 1017.9 0.0
19/09:30am 15.1 10.6 2.0 41 5.9 SW 15 26 8 14 1018.8 1017.9 0.0
19/09:00am 14.6 9.5 0.8 39 6.0 SW 17 28 9 15 1018.9 1018.0 0.0
19/08:30am 14.1 9.9 1.4 42 5.6 SSW 13 20 7 11 1018.9 1018.0 0.0
19/08:00am 13.4 8.4 1.4 44 5.2 SSW 17 32 9 17 1018.8 1017.9 0.0
19/07:30am 12.8 7.7 0.9 44 5.1 S 17 30 9 16 1018.7 1017.8 0.0
19/07:00am 12.9 7.8 1.0 44 5.1 S 17 22 9 12 1018.4 1017.5 0.0
19/06:30am 12.0 7.4 1.6 49 4.5 SSW 15 24 8 13 1018.1 1017.2 0.0
19/06:00am 11.8 7.1 1.2 48 4.5 SSW 15 24 8 13 1017.8 1016.9 0.0
19/05:30am 11.7 6.7 1.6 50 4.4 SSW 17 28 9 15 1017.4 1016.5 0.0
19/05:00am 11.5 6.0 1.7 51 4.2 SSW 20 30 11 16 1017.3 1016.4 0.0
19/04:30am 11.8 7.5 3.3 56 3.8 SSW 15 24 8 13 1016.9 1016.0 0.0
19/04:00am 11.9 7.0 3.9 58 3.6 SSW 19 30 10 16 1016.3 1015.4 0.0
19/03:30am 12.2 8.2 4.7 60 3.5 S 15 24 8 13 1016.0 1015.1 0.0
19/03:00am 12.3 8.0 5.2 62 3.3 S 17 28 9 15 1015.7 1014.8 0.0
19/02:30am 12.5 7.9 5.4 62 3.4 SSW 19 26 10 14 1015.6 1014.7 0.0
19/02:00am 12.7 9.2 5.6 62 3.4 SSW 13 24 7 13 1015.4 1014.5 0.0
19/01:30am 12.7 8.5 5.6 62 3.4 SSW 17 28 9 15 1015.4 1014.5 0.0
19/01:00am 12.9 8.1 5.6 61 3.5 SSW 20 32 11 17 1015.6 1014.7 0.0
19/12:30am 13.0 8.9 6.4 64 3.2 S 17 24 9 13 1015.6 1014.7 0.0
19/12:00am 13.0 8.6 6.6 65 3.1 S 19 30 10 16 1015.5 1014.6 0.0
 
Date/Time
WST
Temp
°C
App
Temp
°C
Dew
Point
°C
Rel
Hum
%
Delta-T
°C
Wind Press
QNH
hPa
Press
MSL
hPa
Rain since
9am
mm
Dir  Spd
km/h
Gust
km/h
Spd
kts
Gust
kts
18/11:30pm 13.1 9.5 8.4 73 2.4 S 17 26 9 14 1015.7 1014.8 0.0
18/11:00pm 13.0 9.3 10.0 82 1.6 S 20 33 11 18 1015.6 1014.7 0.0
18/10:30pm 14.0 10.3 10.0 77 2.1 S 20 30 11 16 1015.5 1014.6 0.0
18/10:00pm 14.9 11.1 9.7 71 2.7 S 20 30 11 16 1015.3 1014.4 0.0
18/09:30pm 15.3 11.7 10.5 73 2.6 S 20 33 11 18 1015.0 1014.1 0.0
18/09:00pm 16.0 12.1 10.7 71 2.9 S 22 32 12 17 1014.6 1013.7 0.0
18/08:30pm 16.6 13.2 11.1 70 3.0 S 20 32 11 17 1014.2 1013.3 0.0
18/08:00pm 16.4 12.5 10.9 70 3.0 S 22 35 12 19 1013.8 1012.9 0.0
18/07:30pm 17.4 13.8 11.9 70 3.1 S 22 35 12 19 1013.0 1012.1 0.0
18/07:00pm 18.3 14.7 11.8 66 3.6 SSW 22 37 12 20 1012.8 1011.9 0.0
18/06:30pm 19.7 14.9 11.7 60 4.5 SSW 28 46 15 25 1012.2 1011.3 0.0
18/06:10pm 21.7 16.7 11.1 51 5.9 SW 28 50 15 27 1011.6 1010.7 0.0
18/06:09pm 22.0 17.0 11.1 50 6.1 WSW 28 50 15 27 1011.6 1010.7 0.0
18/06:00pm 23.1 18.9 7.6 37 8.2 WSW 19 28 10 15 1011.3 1010.4 0.0
18/05:30pm 24.2 19.7 6.9 33 9.1 WSW 20 33 11 18 1010.7 1009.8 0.0
18/05:00pm 24.7 20.1 6.4 31 9.6 WSW 20 41 11 22 1010.5 1009.6 0.0
18/04:30pm 24.7 19.6 7.8 34 9.1 WSW 24 35 13 19 1010.1 1009.1 0.0
18/04:00pm 25.2 20.0 7.3 32 9.6 WSW 24 39 13 21 1009.8 1008.8 0.0
18/03:30pm 25.0 19.8 7.2 32 9.5 WSW 24 37 13 20 1009.7 1008.7 0.0
18/03:00pm 25.3 20.6 7.9 33 9.4 WSW 22 37 12 20 1009.7 1008.7 0.0
18/02:30pm 25.2 20.1 7.8 33 9.4 WSW 24 37 13 20 1009.7 1008.7 0.0
18/02:00pm 25.4 21.1 8.0 33 9.4 WSW 20 32 11 17 1009.8 1008.8 0.0
18/01:30pm 25.0 20.9 8.5 35 9.0 WSW 20 35 11 19 1010.0 1009.0 0.0
18/01:00pm 25.1 20.9 8.1 34 9.2 WSW 20 43 11 23 1010.2 1009.2 0.0
18/12:30pm 25.2 21.0 8.2 34 9.2 W 20 33 11 18 1010.5 1009.6 0.0
18/12:00pm 23.8 19.4 7.4 35 8.7 WSW 20 33 11 18 1010.8 1009.9 0.0
18/11:30am 23.5 19.2 7.2 35 8.6 W 19 30 10 16 1011.1 1010.2 0.0
18/11:00am 22.1 18.2 7.1 38 7.8 W 17 32 9 17 1011.4 1010.5 0.0
18/10:30am 21.5 17.2 7.7 41 7.3 WSW 20 28 11 15 1011.8 1010.9 0.0
18/10:00am 20.6 16.9 7.9 44 6.7 WSW 17 30 9 16 1012.1 1011.2 0.0
18/09:30am 19.2 15.5 7.9 48 5.9 WSW 17 32 9 17 1012.3 1011.4 0.0
18/09:00am 18.5 14.6 8.5 52 5.2 WSW 19 30 10 16 1012.5 1011.6 0.0
18/08:30am 18.2 14.2 9.0 55 4.9 WSW 20 30 11 16 1012.4 1011.5 0.0
18/08:00am 17.9 14.1 9.0 56 4.7 WSW 19 28 10 15 1012.6 1011.7 0.0
18/07:30am 17.1 13.2 9.3 60 4.1 WSW 20 32 11 17 1012.3 1011.4 0.0
18/07:00am 16.6 13.9 10.5 67 3.3 WSW 15 20 8 11 1012.1 1011.2 0.0
18/06:30am 16.4 13.4 10.5 68 3.2 WSW 17 24 9 13 1011.9 1011.0 0.0
18/06:00am 16.3 13.6 10.2 67 3.3 WSW 15 20 8 11 1011.7 1010.8 0.0
18/05:30am 15.7 13.5 10.7 72 2.7 SW 13 22 7 12 1011.4 1010.5 0.0
18/05:00am 16.0 13.2 11.4 74 2.5 SW 17 24 9 13 1010.8 1009.9 0.0
18/04:30am 16.5 14.0 12.3 76 2.3 SW 17 24 9 13 1010.5 1009.6 0.0
18/04:00am 16.9 16.8 13.8 82 1.8 SW 7 11 4 6 1010.2 1009.2 0.0
18/03:30am 16.9 17.0 13.8 82 1.8 SSW 6 11 3 6 1010.0 1009.0 0.0
18/03:00am 17.4 17.0 14.1 81 1.9 S 9 15 5 8 1009.8 1008.8 0.0
18/02:30am 18.0 17.6 14.1 78 2.3 S 9 15 5 8 1009.7 1008.7 0.0
18/02:00am 18.5 17.8 14.2 76 2.5 SSW 11 17 6 9 1009.8 1008.8 0.0
18/01:30am 18.3 17.9 14.2 77 2.4 S 9 15 5 8 1009.9 1008.9 0.0
18/01:00am 18.9 17.7 14.0 73 2.9 SSW 13 20 7 11 1010.0 1009.0 0.0
18/12:30am 19.8 19.0 14.0 69 3.4 SSW 11 17 6 9 1010.0 1009.0 0.0
18/12:00am 20.6 19.7 13.8 65 4.0 S 11 15 6 8 1010.1 1009.1 0.0
 
Date/Time
WST
Temp
°C
App
Temp
°C
Dew
Point
°C
Rel
Hum
%
Delta-T
°C
Wind Press
QNH
hPa
Press
MSL
hPa
Rain since
9am
mm
Dir  Spd
km/h
Gust
km/h
Spd
kts
Gust
kts
17/11:30pm 21.4 21.5 13.8 62 4.5 SSW 6 9 3 5 1010.2 1009.2 0.0
17/11:00pm 21.6 21.6 13.5 60 4.7 SSW 6 7 3 4 1010.2 1009.2 0.0
17/10:30pm 22.2 22.2 14.1 60 4.8 S 7 11 4 6 1010.0 1009.0 0.0
17/10:00pm 23.3 21.8 13.2 53 5.9 WSW 13 19 7 10 1010.3 1009.3 0.0
17/09:30pm 23.9 21.7 13.2 51 6.3 WSW 17 22 9 12 1010.2 1009.2 0.0
17/09:00pm 24.6 21.8 12.5 46 7.0 WSW 19 28 10 15 1010.1 1009.1 0.0
17/08:30pm 25.5 22.1 11.3 41 8.1 WSW 20 30 11 16 1009.7 1008.7 0.0
17/08:00pm 26.4 22.1 9.3 34 9.5 W 22 33 12 18 1009.3 1008.4 0.0
17/07:30pm 27.5 23.5 8.4 30 10.5 W 19 32 10 17 1008.8 1007.9 0.0
17/07:00pm 28.4 24.0 4.6 22 12.4 WNW 17 24 9 13 1008.7 1007.8 0.0
17/06:30pm 29.2 24.3 5.3 22 12.6 WNW 20 28 11 15 1008.5 1007.6 0.0
17/06:00pm 29.8 24.8 3.7 19 13.5 W 19 28 10 15 1008.0 1007.1 0.0
17/05:30pm 30.6 25.0 3.6 18 13.9 W 22 32 12 17 1007.8 1006.9 0.0
17/05:00pm 31.2 26.8 7.6 23 13.1 W 20 32 11 17 1007.7 1006.8 0.0
17/04:30pm 31.7 27.4 9.3 25 12.8 W 22 35 12 19 1007.5 1006.6 0.0
17/04:00pm 32.1 27.7 9.0 24 13.2 W 22 35 12 19 1007.3 1006.3 0.0
17/03:30pm 33.0 27.8 7.1 20 14.4 WNW 24 39 13 21 1007.1 1006.1 0.0
17/03:00pm 34.0 27.3 3.7 15 16.0 WNW 28 41 15 22 1006.9 1005.9 0.0
17/02:30pm 34.5 27.3 3.1 14 16.5 WNW 30 44 16 24 1007.0 1006.0 0.0
17/02:00pm 34.6 27.6 2.2 13 16.8 WNW 28 54 15 29 1007.0 1006.0 0.0
17/01:44pm 34.5 27.1 2.1 13 16.7 NW 30 50 16 27 1006.9 1005.9 0.0
17/01:30pm 35.5 28.1 1.8 12 17.4 WNW 30 44 16 24 1007.2 1006.2 0.0
17/01:01pm 35.0 27.9 3.5 14 16.7 NW 30 50 16 27 1007.5 1006.6 0.0
17/01:00pm 35.4 28.5 4.8 15 16.6 NW 30 46 16 25 1007.5 1006.6 0.0
17/12:51pm 34.7 28.1 4.3 15 16.3 WNW 28 48 15 26 1007.6 1006.7 0.0
17/12:30pm 35.2 30.0 7.3 18 15.7 WNW 24 37 13 20 1007.7 1006.8 0.0
17/12:00pm 34.3 28.8 7.4 19 15.1 NW 26 37 14 20 1008.1 1007.2 0.0
17/11:30am 33.5 28.9 9.5 23 13.8 WNW 24 39 13 21 1008.5 1007.6 0.0
17/11:00am 33.3 29.1 11.2 26 13.1 WNW 24 39 13 21 1009.1 1008.2 0.0
17/10:30am 31.2 27.9 11.6 30 11.6 NW 20 35 11 19 1009.4 1008.5 0.0
17/10:00am 31.3 26.9 11.7 30 11.6 NNW 26 39 14 21 1009.9 1008.9 0.0
17/09:41am 30.9 26.0 11.3 30 11.5 NNW 28 46 15 25 1010.1 1009.1 0.0
17/09:30am 30.5 25.8 10.5 29 11.6 N 26 39 14 21 1010.2 1009.2 0.0
17/09:00am 29.2 23.6 10.3 31 10.8 N 30 41 16 22 1010.4 1009.4 1.6
17/08:30am 27.8 21.8 10.1 33 10.0 N 32 41 17 22 1010.9 1010.0 1.6
17/08:12am 27.2 21.8 9.5 33 9.9 N 28 46 15 25 1011.0 1010.1 1.6
17/08:00am 26.5 21.9 9.8 35 9.4 N 24 35 13 19 1011.0 1010.1 1.6
17/07:30am 25.2 22.2 12.1 44 7.6 NNE 19 30 10 16 1011.2 1010.3 1.4
17/07:00am 23.4 20.9 12.4 50 6.4 NNE 17 26 9 14 1011.2 1010.3 1.4
17/06:30am 22.2 19.3 12.2 53 5.7 NE 19 28 10 15 1011.2 1010.3 1.4
17/06:00am 21.3 17.5 12.4 57 5.1 NE 24 35 13 19 1011.2 1010.3 1.4
17/05:30am 20.8 17.9 12.8 60 4.6 NE 20 32 11 17 1011.1 1010.2 1.4
17/05:00am 20.1 16.5 13.1 64 4.0 ENE 24 37 13 20 1011.0 1010.1 1.4
17/04:30am 19.9 16.3 13.1 65 3.9 ENE 24 35 13 19 1010.8 1009.9 1.4
17/04:00am 19.5 16.9 13.7 69 3.4 ENE 20 32 11 17 1010.8 1009.9 1.4
17/03:30am 19.3 17.0 14.1 72 3.0 ENE 19 28 10 15 1011.2 1010.3 1.4
17/03:00am 19.2 17.0 14.5 74 2.8 ENE 19 28 10 15 1011.5 1010.6 1.4
17/02:30am 18.8 17.2 14.9 78 2.3 ENE 17 26 9 14 1011.9 1011.0 1.4
17/02:00am 19.1 17.0 14.8 76 2.5 ENE 19 30 10 16 1012.3 1011.4 1.4
17/01:30am 18.7 17.9 15.2 80 2.1 ENE 13 20 7 11 1012.6 1011.7 1.4
17/01:00am 18.4 17.7 15.5 83 1.7 ENE 13 20 7 11 1013.0 1012.1 1.4
17/12:30am 18.2 16.2 15.6 85 1.6 ENE 20 26 11 14 1013.2 1012.2 1.4
17/12:00am 16.8 15.8 15.7 93 0.7 ESE 15 20 8 11 1013.9 1013.0 1.4
 
Date/Time
WST
Temp
°C
App
Temp
°C
Dew
Point
°C
Rel
Hum
%
Delta-T
°C
Wind Press
QNH
hPa
Press
MSL
hPa
Rain since
9am
mm
Dir  Spd
km/h
Gust
km/h
Spd
kts
Gust
kts
16/11:30pm 17.1 17.6 15.6 91 0.9 SE 7 9 4 5 1015.7 1014.8 1.4
16/11:00pm 17.0 16.5 15.0 88 1.2 S 11 15 6 8 1015.2 1014.3 0.0
16/10:30pm 17.0 15.7 14.8 87 1.3 SE 15 22 8 12 1015.3 1014.4 0.0
16/10:00pm 17.3 15.8 14.2 82 1.8 SE 15 22 8 12 1015.9 1015.0 0.0
16/09:30pm 17.3 15.7 14.0 81 1.9 SE 15 26 8 14 1016.7 1015.9 0.0
16/09:00pm 17.5 15.0 14.0 80 2.0 SE 20 30 11 16 1016.0 1015.1 0.0
16/08:30pm 18.0 15.4 13.7 76 2.5 SE 20 32 11 17 1015.9 1015.0 0.0
16/08:00pm 18.7 16.1 13.8 73 2.8 SE 20 30 11 16 1015.4 1014.5 0.0
16/07:30pm 19.7 17.0 13.6 68 3.5 SE 20 33 11 18 1015.2 1014.3 0.0
16/07:00pm 21.1 17.3 13.5 62 4.4 SE 26 39 14 21 1014.9 1014.0 0.0
16/06:30pm 23.1 20.3 13.3 54 5.7 SE 20 32 11 17 1014.9 1014.0 0.0
16/06:00pm 25.0 21.4 13.2 48 7.0 SE 24 35 13 19 1014.5 1013.6 0.0
16/05:30pm 26.5 22.2 13.3 44 7.8 ESE 28 41 15 22 1014.1 1013.2 0.0
16/05:00pm 27.2 23.6 13.2 42 8.3 ESE 24 35 13 19 1014.0 1013.1 0.0
16/04:30pm 28.9 25.0 13.2 38 9.4 SE 26 35 14 19 1014.2 1013.3 0.0
16/04:00pm 28.7 25.8 13.0 38 9.4 SE 20 30 11 16 1014.7 1013.8 0.0
16/03:30pm 28.6 25.8 12.5 37 9.5 ESE 19 35 10 19 1014.6 1013.7 0.0
16/03:00pm 28.9 26.0 12.8 37 9.6 E 20 28 11 15 1015.1 1014.2 0.0
16/02:30pm 28.1 25.7 12.5 38 9.2 ESE 17 30 9 16 1015.4 1014.5 0.0
16/02:00pm 27.7 24.8 12.9 40 8.8 E 20 35 11 19 1015.6 1014.7 0.0
16/01:30pm 27.7 25.0 12.9 40 8.8 E 19 28 10 15 1015.8 1014.9 0.0
16/01:00pm 26.5 23.7 12.5 41 8.2 E 19 28 10 15 1016.3 1015.4 0.0

Other Formats:

Comma delimited format used in spreadsheet applications
http://www.bom.gov.au/fwo/IDW60801/IDW60801.95637.axf

JavaScript Object Notation format (JSON) in row-major order
http://www.bom.gov.au/fwo/IDW60801/IDW60801.95637.json